sensor_id;sensor_type;location;lat;lon;timestamp;pressure;altitude;pressure_sealevel;temperature;humidity
36138;BME280;67787;50.074;21.904;2023-11-21T11:03:36;98416.64;;;6.75;83.26
36138;BME280;67787;50.074;21.904;2023-11-21T11:06:07;98417.38;;;6.72;83.11
36138;BME280;67787;50.074;21.904;2023-11-21T11:08:41;98419.23;;;6.76;83.41
36138;BME280;67787;50.074;21.904;2023-11-21T11:11:09;98420.54;;;6.75;83.07
36138;BME280;67787;50.074;21.904;2023-11-21T11:13:43;98424.00;;;6.71;83.12
36138;BME280;67787;50.074;21.904;2023-11-21T11:16:13;98428.10;;;6.64;83.13
36138;BME280;67787;50.074;21.904;2023-11-21T11:18:45;98430.65;;;6.60;83.32
36138;BME280;67787;50.074;21.904;2023-11-21T11:27:30;98427.77;;;6.48;83.46
36138;BME280;67787;50.074;21.904;2023-11-21T11:33:25;98432.52;;;6.48;83.59
36138;BME280;67787;50.074;21.904;2023-11-21T11:38:45;98434.67;;;6.45;83.36
36138;BME280;67787;50.074;21.904;2023-11-21T11:41:24;98436.84;;;6.44;83.43
36138;BME280;67787;50.074;21.904;2023-11-21T11:43:54;98438.15;;;6.43;83.30
36138;BME280;67787;50.074;21.904;2023-11-21T11:46:43;98435.83;;;6.40;83.25
36138;BME280;67787;50.074;21.904;2023-11-21T11:49:24;98436.91;;;6.40;83.47
36138;BME280;67787;50.074;21.904;2023-11-21T11:55:06;98437.94;;;6.38;83.19
36138;BME280;67787;50.074;21.904;2023-11-21T11:57:34;98438.23;;;6.38;83.40
36138;BME280;67787;50.074;21.904;2023-11-21T12:02:46;98440.16;;;6.41;83.36
36138;BME280;67787;50.074;21.904;2023-11-21T12:05:19;98441.34;;;6.43;83.23
36138;BME280;67787;50.074;21.904;2023-11-21T12:07:52;98442.41;;;6.42;83.18
36138;BME280;67787;50.074;21.904;2023-11-21T12:10:24;98445.92;;;6.39;83.01
36138;BME280;67787;50.074;21.904;2023-11-21T12:12:55;98448.55;;;6.37;83.20
36138;BME280;67787;50.074;21.904;2023-11-21T12:15:25;98450.08;;;6.35;83.33
36138;BME280;67787;50.074;21.904;2023-11-21T12:17:53;98449.25;;;6.34;83.43
36138;BME280;67787;50.074;21.904;2023-11-21T12:20:23;98451.64;;;6.33;83.47
36138;BME280;67787;50.074;21.904;2023-11-21T12:22:56;98454.27;;;6.36;83.30
36138;BME280;67787;50.074;21.904;2023-11-21T12:25:28;98452.54;;;6.38;83.54
36138;BME280;67787;50.074;21.904;2023-11-21T12:27:58;98455.67;;;6.36;83.23
36138;BME280;67787;50.074;21.904;2023-11-21T12:30:29;98457.64;;;6.33;83.33
36138;BME280;67787;50.074;21.904;2023-11-21T12:33:00;98458.84;;;6.31;83.49
36138;BME280;67787;50.074;21.904;2023-11-21T12:35:33;98460.83;;;6.30;83.34
36138;BME280;67787;50.074;21.904;2023-11-21T12:38:03;98464.25;;;6.26;83.13
36138;BME280;67787;50.074;21.904;2023-11-21T12:40:32;98471.45;;;6.18;83.17
36138;BME280;67787;50.074;21.904;2023-11-21T12:43:01;98474.33;;;6.14;83.25
36138;BME280;67787;50.074;21.904;2023-11-21T12:45:32;98483.60;;;6.12;83.28
36138;BME280;67787;50.074;21.904;2023-11-21T12:48:05;98484.35;;;6.06;83.15
36138;BME280;67787;50.074;21.904;2023-11-21T12:50:39;98486.34;;;5.99;83.05
36138;BME280;67787;50.074;21.904;2023-11-21T12:53:10;98494.42;;;5.96;83.08
36138;BME280;67787;50.074;21.904;2023-11-21T12:55:41;98490.13;;;5.92;83.17
36138;BME280;67787;50.074;21.904;2023-11-21T12:58:11;98493.59;;;5.87;83.20
36138;BME280;67787;50.074;21.904;2023-11-21T13:00:49;98496.73;;;5.88;83.20
36138;BME280;67787;50.074;21.904;2023-11-21T13:03:19;98500.66;;;5.83;83.17
36138;BME280;67787;50.074;21.904;2023-11-21T13:05:52;98503.07;;;5.76;83.05
36138;BME280;67787;50.074;21.904;2023-11-21T13:08:23;98505.55;;;5.72;83.06
36138;BME280;67787;50.074;21.904;2023-11-21T13:10:53;98509.98;;;5.69;83.20
36138;BME280;67787;50.074;21.904;2023-11-21T13:13:28;98513.59;;;5.65;83.09
36138;BME280;67787;50.074;21.904;2023-11-21T13:16:01;98514.64;;;5.59;83.19
36138;BME280;67787;50.074;21.904;2023-11-21T13:18:32;98519.77;;;5.53;83.08
36138;BME280;67787;50.074;21.904;2023-11-21T13:21:05;98525.48;;;5.48;83.13
36138;BME280;67787;50.074;21.904;2023-11-21T13:23:43;98529.38;;;5.45;83.12
36138;BME280;67787;50.074;21.904;2023-11-21T13:26:14;98531.59;;;5.40;83.18
36138;BME280;67787;50.074;21.904;2023-11-21T13:28:43;98535.45;;;5.38;83.22
36138;BME280;67787;50.074;21.904;2023-11-21T13:31:15;98536.23;;;5.33;83.17
36138;BME280;67787;50.074;21.904;2023-11-21T13:33:50;98541.29;;;5.31;83.12
36138;BME280;67787;50.074;21.904;2023-11-21T13:36:25;98541.96;;;5.31;83.23
36138;BME280;67787;50.074;21.904;2023-11-21T13:38:53;98545.20;;;5.30;83.35
36138;BME280;67787;50.074;21.904;2023-11-21T13:41:21;98551.66;;;5.28;83.07
36138;BME280;67787;50.074;21.904;2023-11-21T13:43:59;98554.23;;;5.24;83.23
36138;BME280;67787;50.074;21.904;2023-11-21T13:46:45;98560.17;;;5.21;83.21
36138;BME280;67787;50.074;21.904;2023-11-21T13:49:14;98562.55;;;5.16;83.22
36138;BME280;67787;50.074;21.904;2023-11-21T13:51:43;98566.44;;;5.13;83.01
36138;BME280;67787;50.074;21.904;2023-11-21T13:54:18;98566.19;;;5.11;83.22
36138;BME280;67787;50.074;21.904;2023-11-21T13:56:47;98570.89;;;5.09;83.12
36138;BME280;67787;50.074;21.904;2023-11-21T13:59:18;98573.24;;;5.08;83.30
36138;BME280;67787;50.074;21.904;2023-11-21T14:01:50;98571.23;;;5.06;83.22
36138;BME280;67787;50.074;21.904;2023-11-21T14:04:22;98571.40;;;5.03;83.16
36138;BME280;67787;50.074;21.904;2023-11-21T14:07:08;98578.25;;;5.03;83.16
36138;BME280;67787;50.074;21.904;2023-11-21T14:09:55;98580.06;;;5.02;83.12
36138;BME280;67787;50.074;21.904;2023-11-21T14:12:24;98585.22;;;5.01;83.15
36138;BME280;67787;50.074;21.904;2023-11-21T14:14:52;98585.05;;;5.01;83.29
36138;BME280;67787;50.074;21.904;2023-11-21T14:17:20;98583.30;;;4.98;83.11
36138;BME280;67787;50.074;21.904;2023-11-21T14:19:50;98586.91;;;4.96;83.16
36138;BME280;67787;50.074;21.904;2023-11-21T14:22:18;98589.27;;;4.94;83.06
36138;BME280;67787;50.074;21.904;2023-11-21T14:24:46;98592.32;;;4.90;83.05
36138;BME280;67787;50.074;21.904;2023-11-21T14:27:15;98589.70;;;4.90;83.14
36138;BME280;67787;50.074;21.904;2023-11-21T14:29:43;98593.77;;;4.89;83.20
36138;BME280;67787;50.074;21.904;2023-11-21T14:32:12;98597.23;;;4.87;83.14
36138;BME280;67787;50.074;21.904;2023-11-21T14:34:42;98597.91;;;4.85;83.18
36138;BME280;67787;50.074;21.904;2023-11-21T14:37:15;98600.58;;;4.81;83.05
36138;BME280;67787;50.074;21.904;2023-11-21T14:39:43;98600.85;;;4.82;83.18
36138;BME280;67787;50.074;21.904;2023-11-21T14:42:15;98603.66;;;4.85;83.19
36138;BME280;67787;50.074;21.904;2023-11-21T14:44:43;98605.89;;;4.86;83.25
36138;BME280;67787;50.074;21.904;2023-11-21T14:47:11;98607.92;;;4.85;83.07
36138;BME280;67787;50.074;21.904;2023-11-21T14:49:43;98605.40;;;4.86;83.14
36138;BME280;67787;50.074;21.904;2023-11-21T14:52:22;98609.63;;;4.86;83.15
36138;BME280;67787;50.074;21.904;2023-11-21T14:55:04;98613.72;;;4.88;83.24
36138;BME280;67787;50.074;21.904;2023-11-21T14:57:51;98618.92;;;4.92;83.31
36138;BME280;67787;50.074;21.904;2023-11-21T15:00:20;98618.54;;;4.96;83.37
36138;BME280;67787;50.074;21.904;2023-11-21T15:03:05;98619.23;;;4.99;83.31
36138;BME280;67787;50.074;21.904;2023-11-21T15:05:35;98619.23;;;4.96;83.07
36138;BME280;67787;50.074;21.904;2023-11-21T15:08:03;98619.83;;;4.89;82.92
36138;BME280;67787;50.074;21.904;2023-11-21T15:10:48;98615.60;;;4.86;83.06
36138;BME280;67787;50.074;21.904;2023-11-21T15:13:22;98613.32;;;4.86;83.18
36138;BME280;67787;50.074;21.904;2023-11-21T15:15:52;98612.56;;;4.83;83.08
36138;BME280;67787;50.074;21.904;2023-11-21T15:18:22;98615.53;;;4.84;83.11
36138;BME280;67787;50.074;21.904;2023-11-21T15:20:50;98619.14;;;4.82;83.10
36138;BME280;67787;50.074;21.904;2023-11-21T15:23:18;98619.86;;;4.82;83.21
36138;BME280;67787;50.074;21.904;2023-11-21T15:25:47;98618.54;;;4.77;82.97
36138;BME280;67787;50.074;21.904;2023-11-21T15:28:15;98621.00;;;4.70;82.94
36138;BME280;67787;50.074;21.904;2023-11-21T15:30:45;98622.52;;;4.66;82.93
36138;BME280;67787;50.074;21.904;2023-11-21T15:33:17;98629.83;;;4.63;83.06
36138;BME280;67787;50.074;21.904;2023-11-21T15:35:45;98625.56;;;4.65;83.21
36138;BME280;67787;50.074;21.904;2023-11-21T15:38:14;98630.16;;;4.64;83.17
36138;BME280;67787;50.074;21.904;2023-11-21T15:40:42;98629.61;;;4.64;83.19
36138;BME280;67787;50.074;21.904;2023-11-21T15:43:11;98628.83;;;4.66;83.27
36138;BME280;67787;50.074;21.904;2023-11-21T15:45:39;98631.92;;;4.64;83.20
36138;BME280;67787;50.074;21.904;2023-11-21T15:48:08;98634.17;;;4.61;82.87
36138;BME280;67787;50.074;21.904;2023-11-21T15:50:38;98635.77;;;4.64;83.21
36138;BME280;67787;50.074;21.904;2023-11-21T15:53:06;98639.08;;;4.64;83.15
36138;BME280;67787;50.074;21.904;2023-11-21T15:55:35;98644.20;;;4.61;83.08
36138;BME280;67787;50.074;21.904;2023-11-21T15:58:09;98652.04;;;4.55;83.06
36138;BME280;67787;50.074;21.904;2023-11-21T16:00:37;98653.52;;;4.51;83.07
36138;BME280;67787;50.074;21.904;2023-11-21T16:03:08;98662.86;;;4.47;83.19
36138;BME280;67787;50.074;21.904;2023-11-21T16:05:37;98667.02;;;4.44;83.17
36138;BME280;67787;50.074;21.904;2023-11-21T16:08:05;98672.16;;;4.37;83.01
36138;BME280;67787;50.074;21.904;2023-11-21T16:10:33;98670.02;;;4.31;83.01
36138;BME280;67787;50.074;21.904;2023-11-21T16:13:05;98673.31;;;4.31;83.16
36138;BME280;67787;50.074;21.904;2023-11-21T16:15:33;98677.45;;;4.29;83.11
36138;BME280;67787;50.074;21.904;2023-11-21T16:18:01;98687.59;;;4.30;83.19
36138;BME280;67787;50.074;21.904;2023-11-21T16:20:29;98690.98;;;4.32;83.26
36138;BME280;67787;50.074;21.904;2023-11-21T16:22:57;98699.91;;;4.37;83.33
36138;BME280;67787;50.074;21.904;2023-11-21T16:25:25;98700.45;;;4.36;83.27
36138;BME280;67787;50.074;21.904;2023-11-21T16:27:54;98702.33;;;4.37;83.30
36138;BME280;67787;50.074;21.904;2023-11-21T16:30:24;98702.69;;;4.34;83.15
36138;BME280;67787;50.074;21.904;2023-11-21T16:32:52;98701.36;;;4.32;83.11
36138;BME280;67787;50.074;21.904;2023-11-21T16:35:26;98704.77;;;4.35;83.16
36138;BME280;67787;50.074;21.904;2023-11-21T16:37:53;98708.27;;;4.34;83.28
36138;BME280;67787;50.074;21.904;2023-11-21T16:40:21;98712.23;;;4.29;83.12
36138;BME280;67787;50.074;21.904;2023-11-21T16:42:50;98706.85;;;4.18;83.05
36138;BME280;67787;50.074;21.904;2023-11-21T16:45:18;98709.08;;;4.16;83.09
36138;BME280;67787;50.074;21.904;2023-11-21T16:48:04;98716.62;;;4.12;83.11
36138;BME280;67787;50.074;21.904;2023-11-21T16:50:34;98717.08;;;4.10;83.16
36138;BME280;67787;50.074;21.904;2023-11-21T16:53:02;98716.86;;;4.11;83.20
36138;BME280;67787;50.074;21.904;2023-11-21T16:55:30;98720.53;;;4.11;83.30
36138;BME280;67787;50.074;21.904;2023-11-21T16:57:58;98727.09;;;4.10;83.21
36138;BME280;67787;50.074;21.904;2023-11-21T17:00:26;98730.98;;;4.09;83.19
36138;BME280;67787;50.074;21.904;2023-11-21T17:02:56;98733.02;;;4.11;83.37
36138;BME280;67787;50.074;21.904;2023-11-21T17:05:25;98735.14;;;4.10;83.14
36138;BME280;67787;50.074;21.904;2023-11-21T17:07:53;98736.85;;;4.11;83.32
36138;BME280;67787;50.074;21.904;2023-11-21T17:10:21;98735.95;;;4.12;83.34
36138;BME280;67787;50.074;21.904;2023-11-21T17:12:49;98735.08;;;4.12;83.23
36138;BME280;67787;50.074;21.904;2023-11-21T17:15:18;98735.22;;;4.12;83.27
36138;BME280;67787;50.074;21.904;2023-11-21T17:17:46;98737.30;;;4.13;83.23
36138;BME280;67787;50.074;21.904;2023-11-21T17:20:14;98739.00;;;4.10;83.29
36138;BME280;67787;50.074;21.904;2023-11-21T17:22:45;98737.24;;;4.10;83.15
36138;BME280;67787;50.074;21.904;2023-11-21T17:25:15;98737.44;;;4.10;83.25
36138;BME280;67787;50.074;21.904;2023-11-21T17:27:43;98737.25;;;4.10;83.12
36138;BME280;67787;50.074;21.904;2023-11-21T17:30:12;98738.11;;;4.11;83.28
36138;BME280;67787;50.074;21.904;2023-11-21T17:32:40;98741.21;;;4.12;83.29
36138;BME280;67787;50.074;21.904;2023-11-21T17:35:10;98741.61;;;4.14;83.42
36138;BME280;67787;50.074;21.904;2023-11-21T17:37:41;98745.33;;;4.17;83.24
36138;BME280;67787;50.074;21.904;2023-11-21T17:40:08;98745.14;;;4.14;83.20
36138;BME280;67787;50.074;21.904;2023-11-21T17:42:36;98741.58;;;4.11;83.19
36138;BME280;67787;50.074;21.904;2023-11-21T17:45:06;98745.49;;;4.10;83.25
36138;BME280;67787;50.074;21.904;2023-11-21T17:47:33;98751.29;;;4.10;83.21
36138;BME280;67787;50.074;21.904;2023-11-21T17:50:02;98748.04;;;4.09;83.08
36138;BME280;67787;50.074;21.904;2023-11-21T17:52:30;98752.19;;;4.07;83.23
36138;BME280;67787;50.074;21.904;2023-11-21T17:54:58;98756.53;;;4.04;83.12
36138;BME280;67787;50.074;21.904;2023-11-21T17:57:26;98758.38;;;4.02;83.28
36138;BME280;67787;50.074;21.904;2023-11-21T17:59:54;98759.15;;;4.04;83.32
36138;BME280;67787;50.074;21.904;2023-11-21T18:02:22;98760.13;;;4.06;83.37
36138;BME280;67787;50.074;21.904;2023-11-21T18:04:50;98762.45;;;4.05;83.24
36138;BME280;67787;50.074;21.904;2023-11-21T18:07:19;98767.62;;;4.03;83.32
36138;BME280;67787;50.074;21.904;2023-11-21T18:09:47;98768.48;;;3.96;83.15
36138;BME280;67787;50.074;21.904;2023-11-21T18:12:18;98766.77;;;3.89;83.10
36138;BME280;67787;50.074;21.904;2023-11-21T18:14:49;98772.02;;;3.89;83.30
36138;BME280;67787;50.074;21.904;2023-11-21T18:17:31;98773.14;;;3.87;83.26
36138;BME280;67787;50.074;21.904;2023-11-21T18:20:10;98778.39;;;3.84;83.37
36138;BME280;67787;50.074;21.904;2023-11-21T18:22:38;98784.05;;;3.83;83.23
36138;BME280;67787;50.074;21.904;2023-11-21T18:25:07;98781.14;;;3.82;83.65
36138;BME280;67787;50.074;21.904;2023-11-21T18:27:37;98786.05;;;3.78;83.21
36138;BME280;67787;50.074;21.904;2023-11-21T18:30:06;98791.00;;;3.78;83.31
36138;BME280;67787;50.074;21.904;2023-11-21T18:32:34;98790.56;;;3.76;83.20
36138;BME280;67787;50.074;21.904;2023-11-21T18:35:02;98797.59;;;3.75;83.22
36138;BME280;67787;50.074;21.904;2023-11-21T18:37:31;98804.32;;;3.74;83.16
36138;BME280;67787;50.074;21.904;2023-11-21T18:39:59;98802.80;;;3.65;83.20
36138;BME280;67787;50.074;21.904;2023-11-21T18:42:27;98803.69;;;3.58;83.28
36138;BME280;67787;50.074;21.904;2023-11-21T18:44:57;98807.86;;;3.51;83.36
36138;BME280;67787;50.074;21.904;2023-11-21T18:47:27;98812.98;;;3.50;83.16
36138;BME280;67787;50.074;21.904;2023-11-21T18:49:55;98811.04;;;3.51;83.29
36138;BME280;67787;50.074;21.904;2023-11-21T18:52:25;98816.45;;;3.48;83.15
36138;BME280;67787;50.074;21.904;2023-11-21T18:54:55;98824.84;;;3.41;83.28
36138;BME280;67787;50.074;21.904;2023-11-21T18:57:27;98826.45;;;3.33;82.97
36138;BME280;67787;50.074;21.904;2023-11-21T18:59:55;98828.11;;;3.27;83.29
36138;BME280;67787;50.074;21.904;2023-11-21T19:02:23;98829.41;;;3.21;83.06
36138;BME280;67787;50.074;21.904;2023-11-21T19:04:51;98827.67;;;3.21;83.24
36138;BME280;67787;50.074;21.904;2023-11-21T19:07:19;98829.91;;;3.22;83.29
36138;BME280;67787;50.074;21.904;2023-11-21T19:09:51;98830.04;;;3.20;83.18
36138;BME280;67787;50.074;21.904;2023-11-21T19:12:20;98831.67;;;3.18;83.40
36138;BME280;67787;50.074;21.904;2023-11-21T19:14:48;98831.88;;;3.17;83.25
36138;BME280;67787;50.074;21.904;2023-11-21T19:17:19;98836.98;;;3.17;83.48
36138;BME280;67787;50.074;21.904;2023-11-21T19:19:48;98839.77;;;3.13;83.14
36138;BME280;67787;50.074;21.904;2023-11-21T19:22:16;98840.35;;;3.12;83.23
36138;BME280;67787;50.074;21.904;2023-11-21T19:24:44;98844.40;;;3.11;83.14
36138;BME280;67787;50.074;21.904;2023-11-21T19:27:15;98856.16;;;3.07;83.14
36138;BME280;67787;50.074;21.904;2023-11-21T19:29:43;98858.69;;;3.02;83.37
36138;BME280;67787;50.074;21.904;2023-11-21T19:32:11;98858.77;;;2.96;83.45
36138;BME280;67787;50.074;21.904;2023-11-21T19:34:39;98862.55;;;2.93;83.54
36138;BME280;67787;50.074;21.904;2023-11-21T19:37:07;98868.23;;;2.88;83.45
36138;BME280;67787;50.074;21.904;2023-11-21T19:39:35;98871.45;;;2.82;83.25
36138;BME280;67787;50.074;21.904;2023-11-21T19:42:03;98872.67;;;2.74;83.18
36138;BME280;67787;50.074;21.904;2023-11-21T19:44:31;98875.94;;;2.72;82.95
36138;BME280;67787;50.074;21.904;2023-11-21T19:47:00;98879.35;;;2.70;83.30
36138;BME280;67787;50.074;21.904;2023-11-21T19:49:28;98888.55;;;2.67;83.39
36138;BME280;67787;50.074;21.904;2023-11-21T19:51:55;98894.04;;;2.62;83.42
36138;BME280;67787;50.074;21.904;2023-11-21T19:54:23;98891.23;;;2.54;83.10
36138;BME280;67787;50.074;21.904;2023-11-21T19:56:52;98895.86;;;2.52;83.30
36138;BME280;67787;50.074;21.904;2023-11-21T19:59:20;98896.16;;;2.48;83.28
36138;BME280;67787;50.074;21.904;2023-11-21T20:01:51;98901.22;;;2.45;83.00
36138;BME280;67787;50.074;21.904;2023-11-21T20:04:19;98900.53;;;2.41;83.14
36138;BME280;67787;50.074;21.904;2023-11-21T20:06:48;98904.41;;;2.40;83.37
36138;BME280;67787;50.074;21.904;2023-11-21T20:09:26;98903.05;;;2.39;83.19
36138;BME280;67787;50.074;21.904;2023-11-21T20:11:54;98903.50;;;2.36;83.25
36138;BME280;67787;50.074;21.904;2023-11-21T20:14:22;98908.34;;;2.33;83.21
36138;BME280;67787;50.074;21.904;2023-11-21T20:16:51;98910.52;;;2.32;83.07
36138;BME280;67787;50.074;21.904;2023-11-21T20:19:20;98911.77;;;2.27;83.06
36138;BME280;67787;50.074;21.904;2023-11-21T20:21:51;98917.63;;;2.25;83.25
36138;BME280;67787;50.074;21.904;2023-11-21T20:24:21;98921.30;;;2.21;83.12
36138;BME280;67787;50.074;21.904;2023-11-21T20:26:51;98925.80;;;2.18;83.46
36138;BME280;67787;50.074;21.904;2023-11-21T20:29:19;98925.88;;;2.16;83.49
36138;BME280;67787;50.074;21.904;2023-11-21T20:31:48;98933.80;;;2.15;82.84
36138;BME280;67787;50.074;21.904;2023-11-21T20:34:20;98931.29;;;2.16;83.20
36138;BME280;67787;50.074;21.904;2023-11-21T20:36:49;98933.36;;;2.16;83.36
36138;BME280;67787;50.074;21.904;2023-11-21T20:39:21;98931.40;;;2.13;82.95
36138;BME280;67787;50.074;21.904;2023-11-21T20:41:50;98940.02;;;2.12;83.05
36138;BME280;67787;50.074;21.904;2023-11-21T20:44:17;98942.55;;;2.06;83.07
36138;BME280;67787;50.074;21.904;2023-11-21T20:46:45;98942.80;;;1.99;83.00
36138;BME280;67787;50.074;21.904;2023-11-21T20:49:17;98942.20;;;1.97;83.06
36138;BME280;67787;50.074;21.904;2023-11-21T20:51:47;98941.74;;;1.95;83.13
36138;BME280;67787;50.074;21.904;2023-11-21T20:54:15;98948.45;;;1.93;82.89
36138;BME280;67787;50.074;21.904;2023-11-21T20:56:43;98953.29;;;1.95;83.14
36138;BME280;67787;50.074;21.904;2023-11-21T20:59:11;98953.02;;;1.97;83.00
36138;BME280;67787;50.074;21.904;2023-11-21T21:01:39;98956.82;;;1.94;83.00
36138;BME280;67787;50.074;21.904;2023-11-21T21:04:08;98951.42;;;1.84;82.85
36138;BME280;67787;50.074;21.904;2023-11-21T21:06:39;98959.28;;;1.84;82.89
36138;BME280;67787;50.074;21.904;2023-11-21T21:09:07;98959.09;;;1.85;82.83
36138;BME280;67787;50.074;21.904;2023-11-21T21:11:39;98963.27;;;1.85;82.96
36138;BME280;67787;50.074;21.904;2023-11-21T21:14:06;98967.70;;;1.84;82.90
36138;BME280;67787;50.074;21.904;2023-11-21T21:16:41;98971.23;;;1.83;82.75
36138;BME280;67787;50.074;21.904;2023-11-21T21:19:10;98976.46;;;1.79;83.07
36138;BME280;67787;50.074;21.904;2023-11-21T21:21:38;98977.23;;;1.76;83.17
36138;BME280;67787;50.074;21.904;2023-11-21T21:24:06;98982.10;;;1.77;82.87
36138;BME280;67787;50.074;21.904;2023-11-21T21:26:34;98984.33;;;1.79;83.14
36138;BME280;67787;50.074;21.904;2023-11-21T21:29:02;98987.17;;;1.77;82.82
36138;BME280;67787;50.074;21.904;2023-11-21T21:31:30;98989.59;;;1.73;83.13
36138;BME280;67787;50.074;21.904;2023-11-21T21:34:00;98990.27;;;1.69;82.95
36138;BME280;67787;50.074;21.904;2023-11-21T21:36:27;98996.90;;;1.69;83.15
36138;BME280;67787;50.074;21.904;2023-11-21T21:38:55;99002.48;;;1.70;82.94
36138;BME280;67787;50.074;21.904;2023-11-21T21:41:23;99009.66;;;1.70;83.04
36138;BME280;67787;50.074;21.904;2023-11-21T21:43:52;99017.85;;;1.66;82.94
36138;BME280;67787;50.074;21.904;2023-11-21T21:46:20;99022.56;;;1.61;82.91
36138;BME280;67787;50.074;21.904;2023-11-21T21:48:48;99024.91;;;1.59;82.87
36138;BME280;67787;50.074;21.904;2023-11-21T21:51:17;99027.20;;;1.58;82.93
36138;BME280;67787;50.074;21.904;2023-11-21T21:53:46;99025.70;;;1.56;82.98
36138;BME280;67787;50.074;21.904;2023-11-21T21:56:18;99030.45;;;1.56;82.83
36138;BME280;67787;50.074;21.904;2023-11-21T21:58:46;99036.96;;;1.49;82.72
36138;BME280;67787;50.074;21.904;2023-11-21T22:01:17;99037.89;;;1.47;82.94
36138;BME280;67787;50.074;21.904;2023-11-21T22:03:45;99042.99;;;1.47;83.00
36138;BME280;67787;50.074;21.904;2023-11-21T22:06:14;99038.36;;;1.40;82.93
36138;BME280;67787;50.074;21.904;2023-11-21T22:08:41;99041.60;;;1.42;83.02
36138;BME280;67787;50.074;21.904;2023-11-21T22:11:10;99037.98;;;1.45;83.06
36138;BME280;67787;50.074;21.904;2023-11-21T22:13:38;99034.14;;;1.45;82.76
36138;BME280;67787;50.074;21.904;2023-11-21T22:16:05;99042.54;;;1.45;82.92
36138;BME280;67787;50.074;21.904;2023-11-21T22:18:34;99049.52;;;1.45;83.06
36138;BME280;67787;50.074;21.904;2023-11-21T22:21:04;99048.02;;;1.48;83.20
36138;BME280;67787;50.074;21.904;2023-11-21T22:23:33;99053.47;;;1.52;83.22
36138;BME280;67787;50.074;21.904;2023-11-21T22:26:01;99053.95;;;1.48;83.04
36138;BME280;67787;50.074;21.904;2023-11-21T22:28:29;99055.61;;;1.46;82.60
36138;BME280;67787;50.074;21.904;2023-11-21T22:30:58;99067.24;;;1.43;82.76
36138;BME280;67787;50.074;21.904;2023-11-21T22:33:27;99069.90;;;1.42;82.77
36138;BME280;67787;50.074;21.904;2023-11-21T22:35:55;99074.92;;;1.43;82.84
36138;BME280;67787;50.074;21.904;2023-11-21T22:38:23;99074.02;;;1.39;82.85
36138;BME280;67787;50.074;21.904;2023-11-21T22:40:51;99069.70;;;1.38;82.73
36138;BME280;67787;50.074;21.904;2023-11-21T22:43:20;99066.15;;;1.39;83.07
36138;BME280;67787;50.074;21.904;2023-11-21T22:45:48;99068.40;;;1.35;82.77
36138;BME280;67787;50.074;21.904;2023-11-21T22:48:20;99071.57;;;1.29;82.49
36138;BME280;67787;50.074;21.904;2023-11-21T22:50:48;99077.16;;;1.24;82.36
36138;BME280;67787;50.074;21.904;2023-11-21T22:53:16;99079.59;;;1.20;82.61
36138;BME280;67787;50.074;21.904;2023-11-21T22:55:44;99082.98;;;1.17;82.78
36138;BME280;67787;50.074;21.904;2023-11-21T22:58:11;99089.59;;;1.13;82.71
36138;BME280;67787;50.074;21.904;2023-11-21T23:00:39;99096.61;;;1.12;82.66
36138;BME280;67787;50.074;21.904;2023-11-21T23:03:07;99097.88;;;1.10;82.89
36138;BME280;67787;50.074;21.904;2023-11-21T23:05:36;99100.77;;;1.08;82.91
36138;BME280;67787;50.074;21.904;2023-11-21T23:08:04;99102.84;;;1.02;82.75
36138;BME280;67787;50.074;21.904;2023-11-21T23:10:32;99108.66;;;1.01;82.71
36138;BME280;67787;50.074;21.904;2023-11-21T23:13:00;99108.42;;;0.98;82.80
36138;BME280;67787;50.074;21.904;2023-11-21T23:15:28;99109.98;;;0.98;83.11
36138;BME280;67787;50.074;21.904;2023-11-21T23:17:56;99114.65;;;1.00;82.80
36138;BME280;67787;50.074;21.904;2023-11-21T23:20:24;99114.73;;;1.02;82.81
36138;BME280;67787;50.074;21.904;2023-11-21T23:22:53;99120.86;;;1.02;82.95
36138;BME280;67787;50.074;21.904;2023-11-21T23:25:23;99120.77;;;0.99;82.90
36138;BME280;67787;50.074;21.904;2023-11-21T23:27:50;99128.99;;;0.99;82.84
36138;BME280;67787;50.074;21.904;2023-11-21T23:30:19;99130.05;;;0.98;82.79
36138;BME280;67787;50.074;21.904;2023-11-21T23:32:47;99139.89;;;0.97;82.71
36138;BME280;67787;50.074;21.904;2023-11-21T23:35:15;99142.33;;;0.91;82.59
36138;BME280;67787;50.074;21.904;2023-11-21T23:37:43;99144.96;;;0.91;82.56
36138;BME280;67787;50.074;21.904;2023-11-21T23:40:11;99143.61;;;0.89;82.77
36138;BME280;67787;50.074;21.904;2023-11-21T23:42:40;99145.00;;;0.89;82.71
36138;BME280;67787;50.074;21.904;2023-11-21T23:45:08;99146.79;;;0.88;82.79
36138;BME280;67787;50.074;21.904;2023-11-21T23:47:36;99149.84;;;0.85;82.78
36138;BME280;67787;50.074;21.904;2023-11-21T23:50:04;99157.20;;;0.85;82.56
36138;BME280;67787;50.074;21.904;2023-11-21T23:52:33;99163.10;;;0.85;82.80
36138;BME280;67787;50.074;21.904;2023-11-21T23:55:01;99165.24;;;0.84;82.71
36138;BME280;67787;50.074;21.904;2023-11-21T23:57:31;99164.95;;;0.82;82.61
36138;BME280;67787;50.074;21.904;2023-11-21T23:59:58;99164.20;;;0.79;82.53
